Time;durP1;ratioP1;P1;durP2;ratioP2;P2;SDS_P1;SDS_P2;PMS_P1;PMS_P2;Temp;Humidity;BMP_temperature;BMP_pressure;BME280_temperature;BME280_humidity;BME280_pressure;Samples;Min_cycle;Max_cycle;Signal;HPM_P1;HPM_P2
2021/12/24 00:00:33;;;;;;;12.60;7.80;;;;;;;-143.84;53.28;45247.09;5032541;28;20935;-72
2021/12/24 00:03:02;;;;;;;8.63;6.50;;;;;;;-143.84;53.26;45256.63;5032365;28;20448;-72
2021/12/24 00:05:31;;;;;;;8.47;6.80;;;;;;;-143.84;53.32;45264.25;5032566;28;20971;-72
2021/12/24 00:07:59;;;;;;;13.67;7.67;;;;;;;-143.84;53.61;45233.78;5032526;28;20449;-72
2021/12/24 00:10:27;;;;;;;12.87;7.50;;;;;;;-143.84;53.84;45279.47;5032588;28;20441;-72
2021/12/24 00:13:00;;;;;;;12.20;7.27;;;;;;;-143.84;53.67;45250.91;5032646;28;20458;-72
2021/12/24 00:18:33;;;;;;;10.00;7.20;;;;;;;-143.84;53.00;45266.16;4995559;28;20821;-69
2021/12/24 00:35:13;;;;;;;5.77;5.17;;;;;;;-143.84;51.25;45239.50;5012049;28;20849;-71
2021/12/24 00:37:42;;;;;;;11.57;5.13;;;;;;;-143.84;51.27;45252.81;5011928;28;21044;-71
2021/12/24 00:40:16;;;;;;;6.20;5.10;;;;;;;-143.84;51.26;45207.13;5011850;28;20792;-71
2021/12/24 00:42:46;;;;;;;7.50;4.57;;;;;;;-143.84;50.53;45222.34;5011677;28;20454;-71
2021/12/24 00:45:15;;;;;;;6.90;4.40;;;;;;;-143.84;50.81;45226.16;5011697;28;20537;-71
2021/12/24 00:47:43;;;;;;;5.97;4.60;;;;;;;-143.84;50.62;45249.00;5011695;28;20456;-71
2021/12/24 00:50:15;;;;;;;5.97;4.17;;;;;;;-143.84;50.51;45245.19;5011641;28;20439;-71
2021/12/24 00:52:52;;;;;;;4.83;4.40;;;;;;;-143.84;50.37;45220.44;5011663;28;20534;-71
2021/12/24 00:55:22;;;;;;;5.03;4.53;;;;;;;-143.84;50.29;45228.06;5011105;28;20486;-71
2021/12/24 00:57:51;;;;;;;7.23;4.70;;;;;;;-143.84;50.39;45239.50;5010944;28;20454;-71
2021/12/24 01:00:23;;;;;;;9.13;5.17;;;;;;;-143.84;50.53;45249.00;5010899;28;20991;-71
2021/12/24 01:02:53;;;;;;;5.23;4.73;;;;;;;-143.84;50.15;45235.69;5011325;28;20454;-71
2021/12/24 01:05:23;;;;;;;7.73;5.40;;;;;;;-143.84;50.19;45243.31;5011331;28;20440;-71
2021/12/24 01:07:54;;;;;;;6.77;4.47;;;;;;;-143.84;50.11;45243.31;5011430;28;20450;-71
2021/12/24 01:10:24;;;;;;;5.83;5.23;;;;;;;-143.84;49.59;45237.59;5011042;28;20506;-71
2021/12/24 01:12:52;;;;;;;7.53;5.27;;;;;;;-143.84;49.67;45210.94;5011092;28;21200;-71
2021/12/24 01:15:20;;;;;;;6.13;4.53;;;;;;;-143.84;50.00;45233.78;5010821;28;20486;-71
2021/12/24 01:17:55;;;;;;;6.20;4.87;;;;;;;-143.84;49.83;45228.06;5011196;28;20469;-71
2021/12/24 01:20:28;;;;;;;5.70;5.10;;;;;;;-143.84;49.88;45239.50;5026810;28;20484;-71
2021/12/24 01:25:46;;;;;;;6.87;5.33;;;;;;;-143.84;49.01;45233.78;5030961;28;20442;-71
2021/12/24 01:39:26;;;;;;;5.63;4.33;;;;;;;-143.84;47.96;45216.63;5030325;28;20430;-69
2021/12/24 01:44:39;;;;;;;6.30;5.10;;;;;;;-143.84;48.05;45254.72;5030210;28;20504;-69
2021/12/24 01:47:08;;;;;;;8.57;5.83;;;;;;;-143.84;47.87;45249.00;5030128;28;20469;-69
2021/12/24 01:49:36;;;;;;;7.33;4.77;;;;;;;-143.84;47.58;45212.84;5029833;28;20928;-69
2021/12/24 01:52:06;;;;;;;5.77;4.83;;;;;;;-143.84;47.45;45237.59;5029831;28;20451;-69
2021/12/24 01:54:34;;;;;;;6.57;5.53;;;;;;;-143.84;47.41;45247.09;5012609;28;20470;-69
2021/12/24 01:57:01;;;;;;;6.93;6.20;;;;;;;-143.84;47.33;45235.69;5029841;28;20563;-69
2021/12/24 01:59:29;;;;;;;9.13;5.30;;;;;;;-143.84;47.25;45243.31;5029882;28;20512;-69
2021/12/24 02:01:56;;;;;;;5.13;4.67;;;;;;;-143.84;47.08;45222.34;5029804;28;20453;-69
2021/12/24 02:04:23;;;;;;;6.50;5.00;;;;;;;-143.84;46.78;45245.19;5029706;28;20975;-69
2021/12/24 02:06:50;;;;;;;4.67;4.20;;;;;;;-143.84;46.53;45207.13;5029472;28;20499;-69
2021/12/24 02:09:19;;;;;;;5.53;4.90;;;;;;;-143.84;46.87;45233.78;5029510;28;20493;-69
2021/12/24 02:11:47;;;;;;;6.40;4.57;;;;;;;-143.84;46.90;45216.63;5029956;28;20426;-69
2021/12/24 02:14:19;;;;;;;7.03;5.37;;;;;;;-143.84;46.95;45233.78;5029355;28;20438;-69
2021/12/24 02:17:06;;;;;;;4.67;4.27;;;;;;;-143.84;46.88;45222.34;5029304;28;20530;-69
2021/12/24 02:30:28;;;;;;;4.67;4.17;;;;;;;-143.84;46.47;45243.31;5029576;28;20437;-69
2021/12/24 02:32:55;;;;;;;5.27;3.90;;;;;;;-143.84;46.92;45254.72;5029278;28;20461;-69
2021/12/24 02:35:23;;;;;;;6.43;4.67;;;;;;;-143.84;46.53;45228.06;5029040;28;20489;-69
2021/12/24 02:37:51;;;;;;;5.70;5.13;;;;;;;-143.84;46.38;45262.34;5029065;28;20440;-69
2021/12/24 02:40:19;;;;;;;6.37;4.80;;;;;;;-143.84;46.60;45203.31;5029005;28;20974;-69
2021/12/24 02:42:51;;;;;;;12.27;5.23;;;;;;;-143.84;46.25;45226.16;5029187;28;20438;-69
2021/12/24 02:45:18;;;;;;;7.30;5.60;;;;;;;-143.84;46.53;45231.88;5029116;28;20442;-69
2021/12/24 02:48:08;;;;;;;5.40;4.67;;;;;;;-143.84;46.71;45239.50;5029213;28;20446;-69
2021/12/24 02:56:10;;;;;;;8.20;5.40;;;;;;;-143.84;46.79;45266.16;5028458;28;20635;-69
2021/12/24 02:58:42;;;;;;;4.90;4.50;;;;;;;-143.84;47.06;45218.53;5028838;28;20435;-68
2021/12/24 03:01:10;;;;;;;5.07;4.50;;;;;;;-143.84;46.78;45210.94;5028652;28;20772;-69
2021/12/24 03:03:37;;;;;;;6.43;4.47;;;;;;;-143.84;47.09;45203.31;5028029;28;20842;-69
2021/12/24 03:06:05;;;;;;;5.63;4.60;;;;;;;-143.84;47.17;45233.78;5028382;28;20540;-69
2021/12/24 03:08:35;;;;;;;5.60;4.70;;;;;;;-143.84;46.97;45224.25;5028530;28;20451;-69
2021/12/24 03:11:02;;;;;;;5.33;4.83;;;;;;;-143.84;47.18;45224.25;5029027;28;20500;-69
2021/12/24 03:13:29;;;;;;;18.77;4.33;;;;;;;-143.84;47.06;45229.97;5028879;28;20449;-69
2021/12/24 03:15:59;;;;;;;6.07;4.43;;;;;;;-143.84;47.22;45235.69;5028713;28;20498;-69
2021/12/24 03:18:29;;;;;;;6.60;5.40;;;;;;;-143.84;47.46;45231.88;5028340;28;20438;-70
2021/12/24 03:21:04;;;;;;;4.90;4.50;;;;;;;-143.84;47.23;45220.44;5028329;28;20446;-69
2021/12/24 03:23:40;;;;;;;4.97;4.53;;;;;;;-143.84;47.23;45188.06;5028209;28;20820;-69
2021/12/24 03:26:11;;;;;;;5.70;5.17;;;;;;;-143.84;47.40;45239.50;5027955;28;20453;-69
2021/12/24 03:28:39;;;;;;;5.50;5.00;;;;;;;-143.84;47.05;45226.16;5028350;28;20462;-69
2021/12/24 03:31:07;;;;;;;6.00;4.53;;;;;;;-143.84;47.37;45243.31;5028171;28;20505;-69
2021/12/24 03:33:35;;;;;;;8.37;4.90;;;;;;;-143.84;47.25;45216.63;5028373;28;20477;-69
2021/12/24 03:36:05;;;;;;;6.07;4.63;;;;;;;-143.84;47.37;45235.69;5028371;28;20505;-69
2021/12/24 03:38:33;;;;;;;8.43;5.10;;;;;;;-143.84;47.50;45224.25;5028385;28;20438;-69
2021/12/24 03:41:00;;;;;;;7.10;5.40;;;;;;;-143.84;47.71;45199.50;5028184;28;20447;-69
2021/12/24 03:43:28;;;;;;;7.57;5.43;;;;;;;-143.84;47.73;45201.41;5028380;28;20956;-69
2021/12/24 03:46:02;;;;;;;8.80;4.90;;;;;;;-143.84;47.68;45226.16;5028246;28;20572;-69
2021/12/24 03:48:43;;;;;;;7.90;5.33;;;;;;;-143.84;47.68;45216.63;5028566;28;20495;-69
2021/12/24 03:51:27;;;;;;;8.50;6.03;;;;;;;-143.84;47.99;45233.78;5028515;28;20473;-69
2021/12/24 03:56:41;;;;;;;8.97;5.20;;;;;;;-143.84;48.34;45214.72;5028255;28;21335;-69
2021/12/24 03:59:12;;;;;;;5.63;4.90;;;;;;;-143.84;48.57;45220.44;5028380;28;20960;-69
2021/12/24 04:01:39;;;;;;;11.77;4.80;;;;;;;-143.84;48.77;45228.06;5028378;28;20450;-72
2021/12/24 04:04:06;;;;;;;6.37;4.77;;;;;;;-143.84;48.90;45201.41;5028714;28;20443;-72
2021/12/24 04:06:34;;;;;;;5.10;4.60;;;;;;;-143.84;49.27;45239.50;5029133;28;20444;-72
2021/12/24 04:09:01;;;;;;;4.60;4.20;;;;;;;-143.84;49.34;45235.69;5028945;28;20949;-72
2021/12/24 04:11:28;;;;;;;5.43;4.60;;;;;;;-143.84;49.35;45269.97;5028684;28;20465;-72
2021/12/24 04:13:55;;;;;;;7.03;4.70;;;;;;;-143.84;49.54;45212.84;5028654;28;20435;-72
2021/12/24 04:16:24;;;;;;;6.40;5.37;;;;;;;-143.84;49.68;45239.50;5028694;28;20482;-72
2021/12/24 04:19:00;;;;;;;5.70;5.10;;;;;;;-143.84;49.70;45233.78;5028261;28;20897;-72
2021/12/24 04:26:56;;;;;;;8.73;5.37;;;;;;;-143.84;49.76;45224.25;5028789;28;20877;-72
2021/12/24 04:29:23;;;;;;;6.80;5.23;;;;;;;-143.84;49.47;45239.50;5028479;28;20446;-72
2021/12/24 04:32:06;;;;;;;5.40;4.90;;;;;;;-143.84;49.62;45210.94;5028452;28;20446;-72
2021/12/24 04:34:35;;;;;;;6.00;5.17;;;;;;;-143.84;49.50;45233.78;5030365;28;20492;-72
2021/12/24 04:39:54;;;;;;;7.40;5.30;;;;;;;-143.84;49.96;45258.53;5030848;28;20943;-72
2021/12/24 05:02:05;;;;;;;5.50;5.00;;;;;;;-143.84;50.93;45241.41;4975217;28;20456;-72
2021/12/24 05:04:37;;;;;;;7.20;5.20;;;;;;;-143.84;51.19;45205.22;5013729;28;20537;-72
2021/12/24 05:07:12;;;;;;;8.20;5.03;;;;;;;-143.84;51.25;45237.59;5031532;28;20439;-72
2021/12/24 05:09:41;;;;;;;9.20;5.97;;;;;;;-143.84;51.06;45231.88;5031539;28;20465;-72
2021/12/24 05:12:10;;;;;;;9.37;5.60;;;;;;;-143.84;51.10;45207.13;5031644;28;21248;-72
2021/12/24 05:14:37;;;;;;;8.90;6.10;;;;;;;-143.84;51.02;45228.06;5031233;28;21197;-72
2021/12/24 05:22:33;;;;;;;10.60;6.00;;;;;;;-143.84;51.36;45245.19;5011553;28;20454;-72
2021/12/24 05:25:00;;;;;;;7.47;5.77;;;;;;;-143.84;51.08;45224.25;5011465;28;20535;-72
2021/12/24 05:27:29;;;;;;;5.83;5.10;;;;;;;-143.84;50.88;45235.69;5011213;28;20505;-72
2021/12/24 05:29:56;;;;;;;8.60;6.17;;;;;;;-143.84;50.95;45235.69;5011182;28;20464;-72
2021/12/24 05:32:23;;;;;;;8.30;5.80;;;;;;;-143.84;51.64;45241.41;5011729;28;20805;-72
2021/12/24 05:34:52;;;;;;;7.67;5.67;;;;;;;-143.84;50.65;45218.53;5011634;28;20447;-76
2021/12/24 05:37:19;;;;;;;8.20;6.00;;;;;;;-143.84;50.74;45249.00;5011420;28;20471;-73
2021/12/24 05:39:46;;;;;;;6.10;5.10;;;;;;;-143.84;51.10;45218.53;5011436;28;20444;-73
2021/12/24 05:42:13;;;;;;;7.17;5.40;;;;;;;-143.84;50.73;45229.97;5011724;28;20443;-73
2021/12/24 05:44:41;;;;;;;6.83;6.10;;;;;;;-143.84;50.89;45207.13;5010633;28;20474;-73
2021/12/24 05:47:08;;;;;;;7.90;6.60;;;;;;;-143.84;50.77;45226.16;5012108;28;20497;-73
2021/12/24 05:49:35;;;;;;;6.87;5.33;;;;;;;-143.84;50.89;45210.94;5011752;28;20440;-73
2021/12/24 05:52:05;;;;;;;10.80;6.63;;;;;;;-143.84;50.99;45203.31;5012043;28;21174;-74
2021/12/24 05:54:32;;;;;;;11.63;5.77;;;;;;;-143.84;51.15;45210.94;5011659;28;20455;-73
2021/12/24 05:56:59;;;;;;;11.67;6.90;;;;;;;-143.84;50.85;45247.09;5011114;28;20471;-72
2021/12/24 05:59:26;;;;;;;6.37;5.47;;;;;;;-143.84;51.07;45235.69;5010243;28;20436;-73
2021/12/24 06:01:54;;;;;;;7.47;5.83;;;;;;;-143.84;51.23;45212.84;5010440;28;20451;-73
2021/12/24 06:04:21;;;;;;;8.63;6.00;;;;;;;-143.84;51.04;45228.06;5010514;28;20436;-72
2021/12/24 06:06:48;;;;;;;7.30;5.27;;;;;;;-143.84;51.07;45203.31;5010961;28;20949;-73
2021/12/24 06:09:16;;;;;;;7.27;6.53;;;;;;;-143.84;51.08;45210.94;5011079;28;20439;-73
2021/12/24 06:11:43;;;;;;;7.67;5.90;;;;;;;-143.84;51.09;45243.31;5010641;28;20847;-72
2021/12/24 06:14:12;;;;;;;12.17;6.60;;;;;;;-143.84;51.10;45210.94;5009830;28;20439;-74
2021/12/24 06:16:47;;;;;;;10.00;6.80;;;;;;;-143.84;51.10;45207.13;5002894;28;20486;-74
2021/12/24 06:19:14;;;;;;;6.97;5.50;;;;;;;-143.84;51.06;45214.72;5010467;28;21043;-72
2021/12/24 06:21:41;;;;;;;9.27;5.70;;;;;;;-143.84;51.19;45237.59;4992930;28;20478;-73
2021/12/24 06:24:09;;;;;;;8.00;5.80;;;;;;;-143.84;51.13;45216.63;5010529;28;20494;-72
2021/12/24 06:26:38;;;;;;;7.93;5.67;;;;;;;-143.84;50.96;45235.69;5010306;28;20447;-73
2021/12/24 06:29:06;;;;;;;8.43;5.40;;;;;;;-143.84;51.05;45239.50;5015824;28;20454;-73
2021/12/24 06:31:33;;;;;;;7.53;6.03;;;;;;;-143.84;50.50;45188.06;5029909;28;20936;-71
2021/12/24 06:34:00;;;;;;;13.90;6.43;;;;;;;-143.84;50.22;45210.94;5029362;28;20450;-71
2021/12/24 06:36:28;;;;;;;8.60;6.07;;;;;;;-143.84;50.33;45226.16;5029950;28;20486;-71
2021/12/24 06:38:55;;;;;;;8.40;5.70;;;;;;;-143.84;50.45;45214.72;5029677;28;20435;-71
2021/12/24 06:41:22;;;;;;;5.53;5.03;;;;;;;-143.84;49.97;45231.88;5029719;28;20956;-72
2021/12/24 06:43:51;;;;;;;7.60;6.20;;;;;;;-143.84;50.30;45224.25;5028804;28;20935;-71
2021/12/24 06:46:18;;;;;;;9.73;6.20;;;;;;;-143.84;50.02;45231.88;5029254;28;20451;-71
2021/12/24 06:48:45;;;;;;;18.00;5.80;;;;;;;-143.84;49.58;45229.97;5029692;28;20450;-70
2021/12/24 06:51:13;;;;;;;7.40;5.83;;;;;;;-143.84;49.30;45205.22;5029891;28;21139;-71
2021/12/24 06:53:40;;;;;;;7.63;5.90;;;;;;;-143.84;49.36;45235.69;5029634;28;20450;-72
2021/12/24 06:56:07;;;;;;;7.50;6.43;;;;;;;-143.84;48.92;45231.88;5028727;28;20447;-71
2021/12/24 06:58:34;;;;;;;8.30;6.50;;;;;;;-143.84;49.48;45218.53;5025642;28;20720;-71
2021/12/24 07:01:04;;;;;;;9.17;5.30;;;;;;;-143.84;48.77;45218.53;5026278;28;20481;-71
2021/12/24 07:03:31;;;;;;;10.27;6.83;;;;;;;-143.84;48.96;45205.22;5029010;28;20545;-72
2021/12/24 07:05:58;;;;;;;8.00;6.03;;;;;;;-143.84;48.91;45252.81;5028797;28;20952;-72
2021/12/24 07:08:25;;;;;;;7.57;5.87;;;;;;;-143.84;48.97;45222.34;5028874;28;20464;-72
2021/12/24 07:10:53;;;;;;;9.27;6.00;;;;;;;-143.84;48.51;45205.22;5029285;28;20444;-70
2021/12/24 07:13:20;;;;;;;8.67;6.27;;;;;;;-143.84;48.78;45220.44;5028871;28;20435;-70
2021/12/24 07:15:47;;;;;;;8.87;6.70;;;;;;;-143.84;48.73;45220.44;5029087;28;20438;-70
2021/12/24 07:18:16;;;;;;;11.07;5.77;;;;;;;-143.84;48.79;45203.31;5028899;28;20486;-71
2021/12/24 07:20:44;;;;;;;18.57;6.47;;;;;;;-143.84;48.54;45222.34;5029009;28;20851;-70
2021/12/24 07:23:11;;;;;;;6.20;5.60;;;;;;;-143.84;48.30;45197.59;5021430;28;20436;-70
2021/12/24 07:25:38;;;;;;;7.20;6.50;;;;;;;-143.84;48.46;45201.41;5026467;28;20439;-70
2021/12/24 07:28:06;;;;;;;7.43;6.20;;;;;;;-143.84;48.37;45210.94;5028343;28;20503;-70
2021/12/24 07:30:34;;;;;;;10.77;7.27;;;;;;;-143.84;47.69;45228.06;5029180;28;20439;-71
2021/12/24 07:33:02;;;;;;;9.10;6.50;;;;;;;-143.84;47.15;45205.22;5029132;28;20442;-70
2021/12/24 07:35:30;;;;;;;8.23;6.13;;;;;;;-143.84;47.25;45199.50;5028874;28;20447;-71
2021/12/24 07:37:57;;;;;;;10.00;5.73;;;;;;;-143.84;46.90;45195.69;5028970;28;20470;-71
2021/12/24 07:40:26;;;;;;;6.83;5.50;;;;;;;-143.84;47.08;45195.69;5028956;28;20454;-71
2021/12/24 07:42:54;;;;;;;13.90;5.77;;;;;;;-143.84;46.97;45212.84;5028191;28;20459;-70
2021/12/24 07:45:22;;;;;;;6.87;6.00;;;;;;;-143.84;46.45;45199.50;5029163;28;20807;-70
2021/12/24 07:48:06;;;;;;;11.57;6.10;;;;;;;-143.84;46.34;45203.31;5028679;28;20502;-72
2021/12/24 07:53:20;;;;;;;16.33;6.70;;;;;;;-143.84;46.62;45224.25;5028846;28;20951;-72
2021/12/24 07:55:47;;;;;;;14.97;7.00;;;;;;;-143.84;46.93;45193.78;5028585;28;20450;-72
2021/12/24 07:58:16;;;;;;;9.10;6.63;;;;;;;-143.84;47.06;45207.13;5028284;28;20484;-72
2021/12/24 08:00:44;;;;;;;5.97;5.37;;;;;;;-143.84;46.71;45205.22;5029156;28;20556;-72
2021/12/24 08:03:12;;;;;;;7.60;6.20;;;;;;;-143.84;46.45;45228.06;5011569;28;20924;-72
2021/12/24 08:05:42;;;;;;;11.50;7.37;;;;;;;-143.84;46.37;45214.72;5028649;28;20844;-72
2021/12/24 08:08:11;;;;;;;8.70;5.40;;;;;;;-143.84;45.96;45197.59;5030329;28;20513;-72
2021/12/24 08:10:41;;;;;;;7.90;6.67;;;;;;;-143.84;45.96;45209.03;5032556;28;20439;-72
2021/12/24 08:13:08;;;;;;;9.20;6.50;;;;;;;-143.84;46.06;45188.06;5031730;28;20440;-72
2021/12/24 08:15:35;;;;;;;7.83;6.57;;;;;;;-143.84;45.78;45207.13;5032496;28;20437;-72
2021/12/24 08:18:02;;;;;;;10.30;7.20;;;;;;;-143.84;45.75;45220.44;5032590;28;20471;-73
2021/12/24 08:20:30;;;;;;;5.97;5.43;;;;;;;-143.84;45.61;45184.25;5032451;28;20498;-72
2021/12/24 08:22:59;;;;;;;7.27;6.50;;;;;;;-143.84;45.65;45209.03;5032398;28;20437;-71
2021/12/24 08:25:26;;;;;;;11.47;6.20;;;;;;;-143.84;45.38;45186.16;5031500;28;20459;-70
2021/12/24 08:27:55;;;;;;;10.10;7.10;;;;;;;-143.84;45.83;45180.47;5031256;28;20496;-70
2021/12/24 08:30:22;;;;;;;7.90;6.37;;;;;;;-143.84;46.03;45224.25;5031771;28;20452;-70
2021/12/24 08:32:49;;;;;;;7.80;6.23;;;;;;;-143.84;45.71;45212.84;5031778;28;20488;-70
2021/12/24 08:35:20;;;;;;;9.87;6.77;;;;;;;-143.84;45.15;45188.06;5031821;28;20431;-71
2021/12/24 08:37:47;;;;;;;9.97;7.27;;;;;;;-143.84;45.26;45212.84;5031734;28;20478;-71
2021/12/24 08:40:16;;;;;;;12.90;7.17;;;;;;;-143.84;45.13;45184.25;5031471;28;20438;-71
2021/12/24 08:42:44;;;;;;;12.43;7.30;;;;;;;-143.84;45.12;45207.13;5030987;28;20514;-70
2021/12/24 08:45:11;;;;;;;17.43;6.33;;;;;;;-143.84;45.06;45214.72;5031068;28;20449;-71
2021/12/24 08:47:38;;;;;;;12.73;7.23;;;;;;;-143.84;44.73;45201.41;5031085;28;20439;-70
2021/12/24 08:50:08;;;;;;;13.10;7.50;;;;;;;-143.84;44.69;45195.69;5031642;28;20815;-71
2021/12/24 08:52:35;;;;;;;10.43;7.50;;;;;;;-143.84;44.87;45176.66;5031174;28;20453;-71
2021/12/24 08:55:02;;;;;;;11.80;7.07;;;;;;;-143.84;44.85;45163.31;5013372;28;20450;-71
2021/12/24 08:57:31;;;;;;;19.83;7.20;;;;;;;-143.84;43.93;45176.66;5030634;28;20544;-71
2021/12/24 08:59:58;;;;;;;7.20;6.47;;;;;;;-143.84;44.36;45159.50;5031112;28;20447;-71
2021/12/24 09:02:25;;;;;;;9.87;7.23;;;;;;;-143.84;43.45;45189.97;5031525;28;20445;-72
2021/12/24 09:04:53;;;;;;;11.83;7.90;;;;;;;-143.84;43.78;45178.56;5031496;28;20492;-73
2021/12/24 09:07:20;;;;;;;8.27;6.73;;;;;;;-143.84;43.57;45199.50;5031400;28;21229;-72
2021/12/24 09:09:47;;;;;;;8.07;6.97;;;;;;;-143.84;43.38;45186.16;5031481;28;20453;-72
2021/12/24 09:12:14;;;;;;;11.80;6.53;;;;;;;-143.84;43.12;45153.81;5031204;28;21184;-73
2021/12/24 09:14:43;;;;;;;8.53;6.30;;;;;;;-143.84;42.89;45195.69;5020675;28;20443;-73
2021/12/24 09:17:10;;;;;;;8.00;7.20;;;;;;;-143.84;42.68;45210.94;5020278;28;20477;-72
2021/12/24 09:19:44;;;;;;;9.33;6.67;;;;;;;-143.84;42.78;45189.97;5030291;28;20556;-72
2021/12/24 09:22:16;;;;;;;11.13;6.70;;;;;;;-143.84;43.09;45186.16;5030025;28;20484;-74
2021/12/24 09:24:44;;;;;;;10.50;6.90;;;;;;;-143.84;42.93;45167.13;5016984;28;21317;-75
2021/12/24 09:27:11;;;;;;;12.80;6.40;;;;;;;-143.84;42.96;45165.22;5011914;28;20451;-75
2021/12/24 09:29:39;;;;;;;7.27;6.47;;;;;;;-143.84;43.02;45165.22;5012659;28;20509;-76
2021/12/24 09:32:09;;;;;;;10.70;7.20;;;;;;;-143.84;43.33;45159.50;5013050;28;20823;-77
2021/12/24 09:34:37;;;;;;;8.90;6.90;;;;;;;-143.84;43.27;45178.56;5012393;28;20948;-72
2021/12/24 09:37:05;;;;;;;9.03;7.47;;;;;;;-143.84;43.08;45170.94;5010251;28;20946;-71
2021/12/24 09:39:32;;;;;;;12.17;7.63;;;;;;;-143.84;43.40;45197.59;5010502;28;20442;-71
2021/12/24 09:42:00;;;;;;;10.43;7.00;;;;;;;-143.84;43.13;45153.81;5010699;28;20545;-70
2021/12/24 09:44:29;;;;;;;10.73;6.93;;;;;;;-143.84;43.17;45172.84;5010587;28;21213;-71
2021/12/24 09:46:56;;;;;;;11.53;6.57;;;;;;;-143.84;42.99;45167.13;5010584;28;20845;-71
2021/12/24 09:49:25;;;;;;;9.63;6.13;;;;;;;-143.84;43.07;45184.25;5010384;28;20440;-71
2021/12/24 09:51:53;;;;;;;9.30;8.00;;;;;;;-143.84;43.28;45174.75;5028446;28;20450;-71
2021/12/24 09:54:23;;;;;;;11.93;7.80;;;;;;;-143.84;43.50;45174.75;5029811;28;20963;-71
2021/12/24 09:56:52;;;;;;;11.33;7.57;;;;;;;-143.84;43.48;45161.41;5015073;28;20455;-71
2021/12/24 09:59:19;;;;;;;12.47;7.83;;;;;;;-143.84;43.54;45157.59;4993015;28;21214;-70
2021/12/24 10:01:54;;;;;;;10.40;7.40;;;;;;;-143.84;43.32;45161.41;5010156;28;20494;-71
2021/12/24 10:04:23;;;;;;;12.43;7.27;;;;;;;-143.84;43.50;45157.59;5009961;28;20929;-71
2021/12/24 10:06:53;;;;;;;10.57;8.00;;;;;;;-143.84;44.29;45157.59;5015176;28;20442;-71
2021/12/24 10:09:21;;;;;;;9.80;7.40;;;;;;;-143.84;43.80;45159.50;5009757;28;20444;-71
2021/12/24 10:11:51;;;;;;;10.30;6.97;;;;;;;-143.84;43.93;45178.56;5009181;28;20440;-70
2021/12/24 10:14:20;;;;;;;13.73;7.40;;;;;;;-143.84;44.21;45191.88;5009854;28;20529;-70
2021/12/24 10:16:51;;;;;;;11.83;6.80;;;;;;;-143.84;43.94;45155.69;5025650;28;20508;-70
2021/12/24 10:19:19;;;;;;;14.27;7.80;;;;;;;-143.84;43.92;45163.31;5019525;28;20498;-71
2021/12/24 10:21:46;;;;;;;13.57;8.37;;;;;;;-143.84;44.13;45184.25;5019178;28;20506;-70
2021/12/24 10:24:18;;;;;;;12.30;8.30;;;;;;;-143.84;44.30;45157.59;5029425;28;20438;-70
2021/12/24 10:26:48;;;;;;;8.33;6.70;;;;;;;-143.84;44.03;45205.22;5029372;28;20454;-70
2021/12/24 10:29:17;;;;;;;8.90;6.40;;;;;;;-143.84;43.81;45176.66;5026931;28;21367;-70
2021/12/24 10:31:48;;;;;;;14.50;6.93;;;;;;;-143.84;44.08;45184.25;5011239;28;20439;-71
2021/12/24 10:34:19;;;;;;;9.63;6.90;;;;;;;-143.84;44.17;45184.25;5014855;28;20444;-71
2021/12/24 10:37:02;;;;;;;10.27;7.40;;;;;;;-143.84;44.35;45184.25;5024272;28;20459;-71
2021/12/24 10:39:38;;;;;;;14.23;8.53;;;;;;;-143.84;44.04;45159.50;5009499;28;20475;-70
2021/12/24 10:42:10;;;;;;;11.93;7.90;;;;;;;-143.84;44.02;45148.09;5009183;28;20444;-70
2021/12/24 10:44:39;;;;;;;12.20;7.70;;;;;;;-143.84;44.24;45172.84;4992400;28;20440;-70
2021/12/24 10:47:10;;;;;;;10.40;8.43;;;;;;;-143.84;43.27;45169.03;5009455;28;20866;-71
2021/12/24 10:55:11;;;;;;;10.60;8.60;;;;;;;-143.84;43.91;45159.50;4986116;28;20443;-71
2021/12/24 10:57:41;;;;;;;11.63;7.37;;;;;;;-143.84;42.27;45155.69;5022346;28;20485;-71
2021/12/24 11:00:17;;;;;;;12.93;7.80;;;;;;;-143.84;40.81;45163.31;5018458;28;20463;-71
2021/12/24 11:02:49;;;;;;;9.53;7.87;;;;;;;-143.84;41.48;45148.09;5008339;28;20451;-71
2021/12/24 11:05:26;;;;;;;11.30;7.80;;;;;;;-143.84;40.98;45146.19;5008359;28;20448;-71
2021/12/24 11:07:54;;;;;;;12.27;8.60;;;;;;;-143.84;40.42;45129.03;5014871;28;20447;-71
2021/12/24 11:10:24;;;;;;;10.50;6.70;;;;;;;-143.84;39.98;45130.94;5020536;28;21058;-70
2021/12/24 11:12:55;;;;;;;11.57;7.70;;;;;;;-143.84;40.31;45157.59;5020188;28;20468;-71
2021/12/24 11:15:25;;;;;;;11.90;7.97;;;;;;;-143.84;39.70;45151.91;5017615;28;20560;-72
2021/12/24 11:17:55;;;;;;;10.17;7.93;;;;;;;-143.84;39.15;45155.69;5013773;28;20436;-71
2021/12/24 11:20:23;;;;;;;14.00;8.00;;;;;;;-143.84;39.45;45100.47;5016423;28;20492;-71
2021/12/24 11:23:00;;;;;;;12.07;8.13;;;;;;;-143.84;39.54;45155.69;5012965;28;20443;-71
2021/12/24 11:25:32;;;;;;;14.33;7.97;;;;;;;-143.84;39.66;45157.59;5023325;28;20459;-71
2021/12/24 11:28:00;;;;;;;15.10;8.83;;;;;;;-143.84;39.15;45161.41;5022061;28;20459;-73
2021/12/24 11:30:29;;;;;;;12.27;8.77;;;;;;;-143.84;38.89;45130.94;5013879;28;20464;-71
2021/12/24 11:32:57;;;;;;;10.93;8.20;;;;;;;-143.84;38.67;45138.56;5013455;28;21182;-71
2021/12/24 11:35:25;;;;;;;15.50;9.70;;;;;;;-143.84;39.01;45125.22;5010973;28;21348;-72
2021/12/24 11:37:53;;;;;;;13.73;9.40;;;;;;;-143.84;39.20;45092.88;5015849;28;20449;-71
2021/12/24 11:40:23;;;;;;;14.50;10.00;;;;;;;-143.84;39.05;45138.56;5016162;28;21033;-72
2021/12/24 11:42:59;;;;;;;10.20;8.30;;;;;;;-143.84;38.86;45142.38;5022810;28;20453;-71
2021/12/24 11:45:28;;;;;;;12.73;9.33;;;;;;;-143.84;38.36;45087.16;5026925;28;20516;-71
2021/12/24 11:47:56;;;;;;;12.90;9.50;;;;;;;-143.84;38.20;45132.84;5025692;28;20450;-71
2021/12/24 11:50:25;;;;;;;12.60;8.53;;;;;;;-143.84;38.34;45146.19;5026345;28;20466;-71
2021/12/24 11:52:55;;;;;;;13.87;8.03;;;;;;;-143.84;38.08;45117.63;5024588;28;20449;-71
2021/12/24 11:55:25;;;;;;;12.50;7.60;;;;;;;-143.84;38.15;45125.22;5028893;28;20471;-72
2021/12/24 11:58:00;;;;;;;13.30;8.57;;;;;;;-143.84;37.90;45127.13;5029962;28;20456;-70
2021/12/24 12:00:32;;;;;;;9.47;8.50;;;;;;;-143.84;38.54;45159.50;5029416;28;20452;-73
2021/12/24 12:02:59;;;;;;;10.03;7.60;;;;;;;-143.84;38.29;45155.69;5025881;28;20444;-70
2021/12/24 12:05:32;;;;;;;11.17;7.93;;;;;;;-143.84;37.95;45115.72;5028151;28;20507;-71
2021/12/24 12:08:36;;;;;;;15.20;8.07;;;;;;;-143.84;38.04;45140.47;5023183;28;20560;-71
2021/12/24 12:11:06;;;;;;;10.33;8.13;;;;;;;-143.84;38.51;45119.53;5030589;28;20459;-73
2021/12/24 12:13:40;;;;;;;12.10;7.73;;;;;;;-143.84;38.55;45127.13;5028574;28;20537;-70
2021/12/24 12:16:09;;;;;;;10.30;8.70;;;;;;;-143.84;38.46;45130.94;5030084;28;20981;-74
2021/12/24 12:18:46;;;;;;;11.10;8.30;;;;;;;-143.84;38.51;45138.56;5026417;28;20909;-71
2021/12/24 12:21:19;;;;;;;8.43;7.30;;;;;;;-143.84;38.64;45125.22;5025801;28;20459;-69
2021/12/24 12:27:00;;;;;;;9.73;8.10;;;;;;;-143.84;39.61;45132.84;5025704;28;20845;-70
2021/12/24 12:29:33;;;;;;;9.83;7.60;;;;;;;-143.84;39.19;45129.03;5025222;28;20467;-70
2021/12/24 12:32:20;;;;;;;13.33;9.70;;;;;;;-143.84;39.42;45140.47;5020316;28;20467;-69
2021/12/24 12:34:53;;;;;;;12.90;8.60;;;;;;;-143.84;39.72;45144.28;5021836;28;20962;-70
2021/12/24 12:37:23;;;;;;;17.50;9.20;;;;;;;-143.84;40.03;45153.81;5025745;28;20458;-70
2021/12/24 12:39:53;;;;;;;17.47;9.30;;;;;;;-143.84;40.02;45157.59;5021416;28;21026;-70
2021/12/24 12:42:23;;;;;;;14.10;9.40;;;;;;;-143.84;40.30;45136.66;5024597;28;20460;-69
2021/12/24 12:44:55;;;;;;;13.43;8.77;;;;;;;-143.84;40.41;45108.09;5028353;28;20464;-69
2021/12/24 12:47:27;;;;;;;16.43;9.90;;;;;;;-143.84;40.87;45115.72;5027313;28;20452;-69
2021/12/24 12:50:14;;;;;;;12.37;8.63;;;;;;;-143.84;40.94;45129.03;5027828;28;20950;-70
2021/12/24 12:52:41;;;;;;;15.60;9.23;;;;;;;-143.84;40.76;45148.09;5027329;28;20447;-70
2021/12/24 12:55:29;;;;;;;13.57;9.30;;;;;;;-143.84;41.20;45144.28;5025691;28;20456;-71
2021/12/24 12:58:22;;;;;;;17.63;9.83;;;;;;;-143.84;41.45;45129.03;5021580;28;20456;-70
2021/12/24 13:01:05;;;;;;;12.10;8.50;;;;;;;-143.84;41.38;45132.84;5023887;28;20990;-73
2021/12/24 13:03:34;;;;;;;17.33;10.90;;;;;;;-143.84;41.54;45151.91;5023314;28;20812;-72